Time;durP1;ratioP1;P1;durP2;ratioP2;P2;SDS_P1;SDS_P2;PMS_P1;PMS_P2;Temp;Humidity;BMP_temperature;BMP_pressure;BME280_temperature;BME280_humidity;BME280_pressure;Samples;Min_cycle;Max_cycle;Signal;HPM_P1;HPM_P2
2022/10/20 00:00:29;;;;;;;6.13;2.38;;;8.70;95.00;;;;;;4910471;29;20028;-67
2022/10/20 00:02:55;;;;;;;5.55;2.50;;;8.70;95.20;;;;;;4910063;29;20660;-67
2022/10/20 00:05:21;;;;;;;2.95;1.95;;;8.70;94.90;;;;;;4912652;29;20113;-67
2022/10/20 00:07:47;;;;;;;5.47;1.98;;;8.70;94.80;;;;;;4908059;29;20489;-74
2022/10/20 00:10:12;;;;;;;6.38;2.03;;;8.60;95.00;;;;;;4911788;29;20039;-74
2022/10/20 00:12:38;;;;;;;2.70;1.85;;;8.60;95.20;;;;;;4913600;29;20032;-74
2022/10/20 00:15:04;;;;;;;4.75;2.33;;;8.60;95.30;;;;;;4920897;29;20060;-74
2022/10/20 00:17:30;;;;;;;4.18;2.30;;;8.60;95.30;;;;;;4909093;29;20122;-67
2022/10/20 00:19:57;;;;;;;2.60;1.65;;;8.60;95.30;;;;;;4913967;29;20138;-67
2022/10/20 00:22:23;;;;;;;4.07;2.45;;;8.60;95.50;;;;;;4908656;29;20501;-67
2022/10/20 00:24:50;;;;;;;6.90;2.30;;;8.60;95.40;;;;;;4908221;29;20032;-67
2022/10/20 00:27:16;;;;;;;4.32;2.47;;;8.60;95.30;;;;;;4913542;29;20028;-67
2022/10/20 00:29:41;;;;;;;5.75;1.92;;;8.70;95.10;;;;;;4909694;29;20448;-67
2022/10/20 00:32:07;;;;;;;5.53;1.83;;;8.60;95.10;;;;;;4913039;29;21074;-67
2022/10/20 00:34:33;;;;;;;3.42;2.13;;;8.60;95.00;;;;;;4922901;29;20032;-67
2022/10/20 00:36:59;;;;;;;4.00;2.10;;;8.60;95.00;;;;;;4916074;29;20527;-68
2022/10/20 00:39:25;;;;;;;2.55;1.95;;;8.60;95.00;;;;;;4911681;29;20118;-68
2022/10/20 00:41:50;;;;;;;4.70;2.13;;;8.60;95.10;;;;;;4918240;29;20031;-68
2022/10/20 00:44:52;;;;;;;1.73;1.60;;;8.60;95.10;;;;;;4916608;29;20036;-67
2022/10/20 00:47:42;;;;;;;2.63;1.83;;;8.60;95.10;;;;;;4915846;29;20028;-67
2022/10/20 00:50:24;;;;;;;5.85;1.88;;;8.60;95.10;;;;;;4915829;29;20035;-68
2022/10/20 00:52:51;;;;;;;3.83;1.85;;;8.60;95.10;;;;;;4920311;29;20132;-68
2022/10/20 00:55:28;;;;;;;3.90;2.13;;;8.60;95.10;;;;;;4916664;29;20032;-67
2022/10/20 00:57:56;;;;;;;2.75;1.75;;;8.50;95.20;;;;;;4915971;29;20070;-67
2022/10/20 01:00:22;;;;;;;3.25;1.80;;;8.50;95.10;;;;;;4910936;29;20507;-67
2022/10/20 01:02:52;;;;;;;5.18;1.95;;;8.50;94.90;;;;;;4916047;29;20028;-67
2022/10/20 01:05:19;;;;;;;4.47;1.80;;;8.60;95.10;;;;;;4918160;29;20028;-67
2022/10/20 01:07:45;;;;;;;3.05;1.70;;;8.50;95.20;;;;;;4909807;29;20671;-67
2022/10/20 01:10:11;;;;;;;2.88;1.73;;;8.50;95.20;;;;;;4917676;29;20036;-67
2022/10/20 01:13:01;;;;;;;2.97;2.00;;;8.50;95.20;;;;;;4921567;29;20032;-68
2022/10/20 01:15:36;;;;;;;2.70;2.05;;;8.50;94.80;;;;;;4913571;29;20063;-68
2022/10/20 01:18:21;;;;;;;4.13;2.10;;;8.50;94.90;;;;;;4915926;29;20040;-67
2022/10/20 01:21:14;;;;;;;6.60;1.85;;;8.50;94.90;;;;;;4914327;29;20143;-67
2022/10/20 01:23:54;;;;;;;2.47;1.98;;;8.50;94.70;;;;;;4915902;29;20068;-67
2022/10/20 01:26:42;;;;;;;3.20;1.85;;;8.50;94.80;;;;;;4916288;29;20024;-68
2022/10/20 01:29:24;;;;;;;5.95;2.10;;;8.50;94.80;;;;;;4915939;29;20621;-68
2022/10/20 01:32:16;;;;;;;3.72;2.03;;;8.50;94.80;;;;;;4915238;29;20036;-68
2022/10/20 01:34:50;;;;;;;4.18;2.70;;;8.50;94.80;;;;;;4917418;29;20036;-67
2022/10/20 01:37:38;;;;;;;2.58;1.80;;;8.50;94.80;;;;;;4923028;29;20050;-68
2022/10/20 01:40:22;;;;;;;2.85;1.77;;;8.50;95.00;;;;;;4913817;29;20126;-67
2022/10/20 01:42:50;;;;;;;2.08;1.85;;;8.50;94.70;;;;;;4913510;29;20127;-67
2022/10/20 01:45:20;;;;;;;4.70;2.28;;;8.50;94.60;;;;;;4916655;29;20036;-74
2022/10/20 01:47:48;;;;;;;3.83;1.85;;;8.40;94.70;;;;;;4933185;29;20036;-74
2022/10/20 01:50:16;;;;;;;2.40;1.80;;;8.40;94.80;;;;;;4920820;29;20040;-67
2022/10/20 01:52:41;;;;;;;4.82;2.00;;;8.40;94.80;;;;;;4919804;29;20115;-74
2022/10/20 01:55:16;;;;;;;2.53;1.65;;;8.40;94.80;;;;;;4918567;29;20048;-74
2022/10/20 01:58:08;;;;;;;4.55;2.30;;;8.40;94.80;;;;;;4914011;29;20044;-74
2022/10/20 02:00:36;;;;;;;3.03;1.90;;;8.40;94.70;;;;;;4915697;29;20035;-74
2022/10/20 02:03:30;;;;;;;3.53;2.00;;;8.30;94.70;;;;;;4917364;29;20032;-74
2022/10/20 02:06:28;;;;;;;2.15;1.55;;;8.30;94.70;;;;;;4917326;29;20055;-74
2022/10/20 02:09:02;;;;;;;2.85;1.80;;;8.30;94.70;;;;;;4917761;29;20090;-74
2022/10/20 02:12:09;;;;;;;2.08;1.85;;;8.30;94.70;;;;;;4915694;29;20032;-74
2022/10/20 02:14:37;;;;;;;4.47;1.90;;;8.30;94.60;;;;;;4883796;29;20036;-74
2022/10/20 02:17:08;;;;;;;2.13;1.60;;;8.30;94.60;;;;;;4875702;29;20103;-74
2022/10/20 02:19:38;;;;;;;4.22;2.00;;;8.30;94.60;;;;;;4899913;29;20056;-74
2022/10/20 02:22:06;;;;;;;3.50;1.80;;;8.30;94.60;;;;;;4916616;29;20070;-67
2022/10/20 02:24:36;;;;;;;3.60;1.90;;;8.30;94.60;;;;;;4914404;29;20044;-68
2022/10/20 02:27:11;;;;;;;4.93;1.80;;;8.30;94.50;;;;;;4913753;29;20094;-67
2022/10/20 02:29:55;;;;;;;5.95;2.08;;;8.30;94.60;;;;;;4914776;29;20107;-67
2022/10/20 02:32:23;;;;;;;3.08;1.92;;;8.20;94.60;;;;;;4919009;29;20040;-67
2022/10/20 02:34:49;;;;;;;4.78;1.80;;;8.20;94.40;;;;;;4912096;29;20050;-67
2022/10/20 02:37:15;;;;;;;3.45;1.95;;;8.20;94.50;;;;;;4912967;29;20748;-68
2022/10/20 02:39:40;;;;;;;6.70;1.88;;;8.20;94.60;;;;;;4913479;29;20036;-67
2022/10/20 02:42:06;;;;;;;4.47;1.90;;;8.10;94.30;;;;;;4910686;29;20119;-67
2022/10/20 02:44:32;;;;;;;7.07;2.10;;;8.10;94.30;;;;;;4917441;29;20448;-67
2022/10/20 02:46:58;;;;;;;3.95;2.15;;;8.10;94.50;;;;;;4918984;29;20071;-67
2022/10/20 02:49:24;;;;;;;3.85;2.20;;;8.00;94.60;;;;;;4910450;29;20130;-67
2022/10/20 02:51:50;;;;;;;2.45;1.67;;;8.00;94.60;;;;;;4914341;29;20046;-67
2022/10/20 02:54:16;;;;;;;3.03;1.60;;;8.00;94.50;;;;;;4914009;29;20647;-68
2022/10/20 02:56:41;;;;;;;9.35;1.90;;;8.00;94.60;;;;;;4909402;29;20039;-67
2022/10/20 02:59:12;;;;;;;3.83;1.75;;;8.00;94.60;;;;;;4914847;29;20720;-67
2022/10/20 03:01:38;;;;;;;3.53;1.85;;;8.00;94.60;;;;;;4913874;29;20020;-68
2022/10/20 03:04:04;;;;;;;2.63;1.80;;;7.90;94.80;;;;;;4909206;29;20047;-67
2022/10/20 03:06:30;;;;;;;3.58;1.90;;;7.90;94.90;;;;;;4913986;29;20054;-67
2022/10/20 03:08:55;;;;;;;2.72;1.80;;;7.90;95.10;;;;;;4917353;29;20051;-67
2022/10/20 03:11:21;;;;;;;6.18;2.17;;;7.90;94.90;;;;;;4908208;29;20760;-67
2022/10/20 03:13:47;;;;;;;2.97;2.10;;;7.90;94.60;;;;;;4912355;29;20026;-67
2022/10/20 03:16:12;;;;;;;2.80;1.83;;;7.90;94.60;;;;;;4913255;29;20047;-67
2022/10/20 03:18:38;;;;;;;2.90;1.88;;;7.90;94.60;;;;;;4908084;29;20036;-74
2022/10/20 03:21:04;;;;;;;3.72;2.38;;;7.80;94.60;;;;;;4921397;29;20459;-74
2022/10/20 03:23:29;;;;;;;5.38;3.25;;;7.80;94.60;;;;;;4917060;29;20114;-74
2022/10/20 03:26:04;;;;;;;2.10;1.60;;;7.80;94.60;;;;;;4909983;29;20040;-74
2022/10/20 03:28:30;;;;;;;4.25;2.35;;;7.80;94.60;;;;;;4914062;29;20126;-74
2022/10/20 03:30:56;;;;;;;2.47;1.40;;;7.80;94.60;;;;;;4913447;29;20044;-74
2022/10/20 03:33:21;;;;;;;3.70;2.10;;;7.80;94.50;;;;;;4908833;29;20040;-67
2022/10/20 03:35:47;;;;;;;2.58;1.73;;;7.80;94.50;;;;;;4913295;29;20074;-67
2022/10/20 03:38:13;;;;;;;2.78;2.05;;;7.80;94.60;;;;;;4911554;29;20044;-67
2022/10/20 03:40:39;;;;;;;5.97;2.03;;;7.80;94.60;;;;;;4907599;29;20024;-74
2022/10/20 03:43:04;;;;;;;3.97;2.20;;;7.80;94.50;;;;;;4913217;29;20543;-74
2022/10/20 03:45:30;;;;;;;2.63;1.83;;;7.80;94.50;;;;;;4915936;29;20059;-74
2022/10/20 03:47:56;;;;;;;2.95;2.03;;;7.80;94.50;;;;;;4907679;29;20499;-74
2022/10/20 03:50:22;;;;;;;6.18;2.88;;;7.80;94.60;;;;;;4915069;29;20039;-74
2022/10/20 03:52:48;;;;;;;3.40;1.88;;;7.80;94.60;;;;;;4913268;29;20039;-74
2022/10/20 03:55:15;;;;;;;2.47;2.00;;;7.80;94.50;;;;;;4911409;29;20553;-74
2022/10/20 03:57:41;;;;;;;6.88;2.20;;;7.80;94.60;;;;;;4915882;29;20040;-74
2022/10/20 04:00:07;;;;;;;5.78;2.63;;;7.80;94.50;;;;;;4915846;29;20052;-74
2022/10/20 04:02:45;;;;;;;4.30;2.20;;;7.80;94.50;;;;;;4908576;29;20480;-75
2022/10/20 04:05:15;;;;;;;4.05;2.10;;;7.80;94.40;;;;;;4917564;29;20539;-75
2022/10/20 04:07:41;;;;;;;3.13;2.28;;;7.80;94.40;;;;;;4913665;29;20107;-74
2022/10/20 04:10:07;;;;;;;2.38;2.00;;;7.70;94.30;;;;;;4917642;29;20044;-74
2022/10/20 04:12:33;;;;;;;4.20;1.83;;;7.70;94.40;;;;;;4915080;29;20762;-74
2022/10/20 04:14:59;;;;;;;3.88;2.30;;;7.70;94.30;;;;;;4915395;29;20052;-74
2022/10/20 04:17:24;;;;;;;3.13;2.15;;;7.70;94.10;;;;;;4913927;29;20035;-74
2022/10/20 04:19:50;;;;;;;2.92;2.00;;;7.60;94.20;;;;;;4922612;29;20039;-74
2022/10/20 04:22:16;;;;;;;6.18;2.10;;;7.60;94.30;;;;;;4936801;29;20032;-74
2022/10/20 04:24:42;;;;;;;4.30;1.98;;;7.60;94.40;;;;;;4913247;29;20032;-74
2022/10/20 04:27:07;;;;;;;3.33;2.47;;;7.60;94.40;;;;;;4916135;29;20024;-67
2022/10/20 04:29:33;;;;;;;3.22;2.13;;;7.60;94.50;;;;;;4914891;29;20078;-68
2022/10/20 04:31:59;;;;;;;4.55;2.38;;;7.60;94.60;;;;;;4913520;29;20036;-68
2022/10/20 04:34:25;;;;;;;4.07;2.55;;;7.50;94.40;;;;;;4920917;29;20047;-67
2022/10/20 04:36:50;;;;;;;3.85;2.20;;;7.50;94.50;;;;;;4914235;29;20571;-68
2022/10/20 04:39:16;;;;;;;4.43;2.40;;;7.50;94.60;;;;;;4917838;29;20074;-68
2022/10/20 04:41:42;;;;;;;3.22;2.40;;;7.50;94.70;;;;;;4930458;29;20023;-67
2022/10/20 04:44:08;;;;;;;3.92;2.22;;;7.50;94.70;;;;;;4925805;29;20498;-67
2022/10/20 04:46:34;;;;;;;7.13;2.50;;;7.50;94.70;;;;;;4920459;29;20032;-68
2022/10/20 04:49:00;;;;;;;5.10;2.42;;;7.50;94.80;;;;;;4927236;29;20036;-67
2022/10/20 04:51:26;;;;;;;5.35;2.30;;;7.50;94.70;;;;;;4919906;29;20040;-67
2022/10/20 04:53:52;;;;;;;4.88;2.80;;;7.50;94.70;;;;;;4916008;29;20036;-68
2022/10/20 04:56:20;;;;;;;6.00;2.40;;;7.40;94.70;;;;;;4929654;29;20068;-68
2022/10/20 04:58:53;;;;;;;4.10;2.55;;;7.40;94.80;;;;;;4932428;28;20040;-67
2022/10/20 05:01:22;;;;;;;4.68;2.67;;;7.40;94.50;;;;;;4920288;29;20043;-67
2022/10/20 05:03:48;;;;;;;5.05;2.53;;;7.40;94.70;;;;;;4921105;28;20034;-68
2022/10/20 05:06:18;;;;;;;4.10;2.30;;;7.40;94.90;;;;;;4923146;29;20031;-67
2022/10/20 05:08:47;;;;;;;4.68;2.47;;;7.30;94.90;;;;;;4925385;28;20957;-67
2022/10/20 05:11:14;;;;;;;4.55;2.55;;;7.40;95.00;;;;;;4919805;29;20052;-67
2022/10/20 05:13:40;;;;;;;4.65;2.75;;;7.40;95.00;;;;;;4918838;29;20036;-68
2022/10/20 05:16:06;;;;;;;6.95;2.45;;;7.40;95.00;;;;;;4921251;29;20055;-67
2022/10/20 05:18:33;;;;;;;4.72;2.83;;;7.40;95.00;;;;;;4923324;29;20036;-74
2022/10/20 05:21:03;;;;;;;6.05;3.22;;;7.30;94.80;;;;;;4929954;29;20031;-74
2022/10/20 05:23:29;;;;;;;4.03;2.67;;;7.30;94.90;;;;;;4913934;29;20036;-74
2022/10/20 05:25:54;;;;;;;5.15;2.65;;;7.30;95.00;;;;;;4924048;29;20079;-74
2022/10/20 05:28:20;;;;;;;4.43;2.50;;;7.30;95.00;;;;;;4928056;29;20427;-74
2022/10/20 05:30:46;;;;;;;4.93;3.08;;;7.40;95.00;;;;;;4924038;29;20067;-67
2022/10/20 05:33:12;;;;;;;4.00;2.97;;;7.40;94.90;;;;;;4926591;29;20062;-68
2022/10/20 05:35:37;;;;;;;6.50;3.10;;;7.40;94.90;;;;;;4929766;28;20150;-68
2022/10/20 05:38:03;;;;;;;4.53;2.97;;;7.30;94.90;;;;;;4917710;29;20082;-68
2022/10/20 05:40:29;;;;;;;4.60;2.70;;;7.30;94.90;;;;;;4923662;29;20411;-74
2022/10/20 05:42:56;;;;;;;3.83;2.35;;;7.30;94.90;;;;;;4932581;29;20495;-74
2022/10/20 05:45:22;;;;;;;5.43;2.90;;;7.30;94.90;;;;;;4926573;29;20487;-74
2022/10/20 05:47:47;;;;;;;4.50;2.60;;;7.30;95.00;;;;;;4922425;29;20039;-75
2022/10/20 05:50:13;;;;;;;3.95;2.88;;;7.30;95.10;;;;;;4916019;29;20151;-74
2022/10/20 05:52:39;;;;;;;3.80;2.67;;;7.20;95.00;;;;;;4922601;29;20055;-74
2022/10/20 05:55:05;;;;;;;4.68;3.42;;;7.30;95.10;;;;;;4925313;29;20040;-74
2022/10/20 05:57:31;;;;;;;6.80;2.92;;;7.20;95.10;;;;;;4917762;29;20050;-74
2022/10/20 05:59:56;;;;;;;6.63;3.10;;;7.30;95.00;;;;;;4924396;28;20555;-74
2022/10/20 06:02:22;;;;;;;5.90;3.15;;;7.30;95.00;;;;;;4923328;29;20051;-74
2022/10/20 06:04:48;;;;;;;8.10;3.55;;;7.30;95.00;;;;;;4928196;29;20041;-74
2022/10/20 06:07:13;;;;;;;5.50;2.92;;;7.30;95.00;;;;;;4927449;29;20027;-74
2022/10/20 06:09:40;;;;;;;5.90;2.65;;;7.30;95.20;;;;;;4921012;29;20032;-74
2022/10/20 06:12:06;;;;;;;7.75;3.05;;;7.30;94.90;;;;;;4924538;28;20039;-74
2022/10/20 06:14:32;;;;;;;5.78;2.75;;;7.30;95.10;;;;;;4922520;29;20552;-74
2022/10/20 06:16:58;;;;;;;5.50;3.45;;;7.30;95.10;;;;;;4931784;29;20035;-74
2022/10/20 06:19:24;;;;;;;6.47;3.22;;;7.30;95.10;;;;;;4915069;29;20032;-74
2022/10/20 06:21:51;;;;;;;5.47;3.78;;;7.30;95.30;;;;;;4924488;29;20046;-74
2022/10/20 06:24:18;;;;;;;5.40;3.53;;;7.30;95.20;;;;;;4924618;29;20146;-74
2022/10/20 06:26:44;;;;;;;6.03;3.25;;;7.40;95.20;;;;;;4922519;29;20043;-74
2022/10/20 06:29:15;;;;;;;6.30;3.47;;;7.40;95.20;;;;;;4944008;28;20058;-74
2022/10/20 06:31:43;;;;;;;5.35;3.63;;;7.40;95.00;;;;;;4918617;29;20809;-74
2022/10/20 06:34:28;;;;;;;9.15;4.00;;;7.40;95.20;;;;;;4926789;29;20449;-74
2022/10/20 06:36:54;;;;;;;5.82;3.35;;;7.50;95.20;;;;;;4923073;29;20047;-74
2022/10/20 06:39:22;;;;;;;6.97;3.50;;;7.50;95.40;;;;;;4927143;29;20109;-75
2022/10/20 06:41:49;;;;;;;5.72;3.50;;;7.50;95.40;;;;;;4920399;29;20024;-74
2022/10/20 06:44:19;;;;;;;7.65;4.07;;;7.60;95.40;;;;;;4921063;29;20027;-74
2022/10/20 06:46:45;;;;;;;7.60;3.60;;;7.60;95.50;;;;;;4933323;29;20031;-75
2022/10/20 06:49:13;;;;;;;5.97;3.80;;;7.70;95.40;;;;;;4916105;28;20036;-74
2022/10/20 06:51:39;;;;;;;10.35;3.83;;;7.70;95.10;;;;;;4925710;29;20036;-74
2022/10/20 06:54:05;;;;;;;6.28;3.97;;;7.80;95.40;;;;;;4919808;29;20858;-74
2022/10/20 06:56:33;;;;;;;8.80;4.72;;;7.80;95.40;;;;;;4932194;29;20046;-74
2022/10/20 06:59:00;;;;;;;8.90;4.63;;;7.90;95.40;;;;;;4916991;28;20036;-67
2022/10/20 07:01:32;;;;;;;22.10;4.30;;;8.00;95.40;;;;;;4927499;28;20038;-68
2022/10/20 07:04:01;;;;;;;9.38;4.00;;;8.00;95.30;;;;;;4913200;29;20115;-67
2022/10/20 07:06:32;;;;;;;9.85;4.50;;;8.00;95.10;;;;;;4944230;28;20039;-68
2022/10/20 07:08:58;;;;;;;7.78;4.30;;;8.00;95.20;;;;;;4924726;29;20046;-68
2022/10/20 07:11:26;;;;;;;11.48;4.45;;;8.10;95.20;;;;;;4923054;29;20496;-67
2022/10/20 07:13:52;;;;;;;11.23;4.20;;;8.10;95.20;;;;;;4911475;29;20036;-72
2022/10/20 07:16:23;;;;;;;8.13;4.60;;;8.20;95.10;;;;;;4927880;29;20027;-75
2022/10/20 07:18:49;;;;;;;6.80;3.97;;;8.20;95.40;;;;;;4925394;29;20036;-73
2022/10/20 07:21:17;;;;;;;7.80;4.05;;;8.30;95.10;;;;;;4920790;29;20224;-76
2022/10/20 07:23:44;;;;;;;9.07;4.55;;;8.40;94.80;;;;;;4924117;29;20114;-76
2022/10/20 07:26:14;;;;;;;9.20;4.72;;;8.40;95.00;;;;;;4916215;29;20318;-77
2022/10/20 07:28:42;;;;;;;7.78;4.53;;;8.50;95.20;;;;;;4923036;29;20039;-77
2022/10/20 07:31:14;;;;;;;10.35;4.85;;;8.60;95.30;;;;;;4919698;29;20107;-76
2022/10/20 07:33:39;;;;;;;8.75;4.35;;;8.70;95.20;;;;;;4919710;29;20503;-76
2022/10/20 07:36:12;;;;;;;8.23;4.72;;;8.80;95.10;;;;;;4922273;29;20039;-73
2022/10/20 07:38:38;;;;;;;8.68;4.82;;;9.00;95.00;;;;;;4913402;29;20044;-74
2022/10/20 07:41:04;;;;;;;10.60;5.07;;;9.00;95.10;;;;;;4919498;28;20028;-74
2022/10/20 07:43:30;;;;;;;7.45;4.50;;;9.10;94.90;;;;;;4918546;29;20043;-74
2022/10/20 07:45:55;;;;;;;8.57;4.22;;;9.20;94.90;;;;;;4924444;29;20047;-74
2022/10/20 07:48:21;;;;;;;9.95;4.68;;;9.30;94.80;;;;;;4925581;29;20051;-73
2022/10/20 07:50:47;;;;;;;7.40;4.22;;;9.30;94.50;;;;;;4921144;29;20110;-74
2022/10/20 07:53:13;;;;;;;6.82;4.50;;;9.40;94.50;;;;;;4921123;29;21826;-73
2022/10/20 07:55:38;;;;;;;7.50;4.43;;;9.50;94.50;;;;;;4932426;28;20492;-73
2022/10/20 07:58:04;;;;;;;7.80;4.53;;;9.60;94.40;;;;;;4936126;28;20070;-76
2022/10/20 08:00:30;;;;;;;8.93;4.97;;;9.70;94.00;;;;;;4917926;29;20079;-76
2022/10/20 08:02:55;;;;;;;11.32;4.28;;;9.80;94.20;;;;;;4909531;29;20063;-75
2022/10/20 08:05:21;;;;;;;6.93;4.13;;;9.90;93.90;;;;;;4924977;29;20082;-76
2022/10/20 08:07:47;;;;;;;8.52;5.43;;;10.00;93.40;;;;;;4924586;29;20031;-75
2022/10/20 08:10:12;;;;;;;7.80;4.65;;;10.10;93.30;;;;;;4915665;29;20062;-67
2022/10/20 08:12:38;;;;;;;5.63;3.47;;;10.10;93.50;;;;;;4919382;29;20506;-68
2022/10/20 08:15:05;;;;;;;7.82;5.00;;;10.30;93.20;;;;;;4921488;29;20165;-76
2022/10/20 08:17:31;;;;;;;6.50;4.18;;;10.40;92.80;;;;;;4921110;29;20449;-77
2022/10/20 08:19:56;;;;;;;7.95;4.28;;;10.50;92.30;;;;;;4916868;29;20036;-75
2022/10/20 08:22:22;;;;;;;7.20;3.80;;;10.60;91.80;;;;;;4920724;29;20036;-75
2022/10/20 08:24:48;;;;;;;6.70;3.65;;;10.70;92.10;;;;;;4918694;29;20024;-75
2022/10/20 08:27:14;;;;;;;7.20;3.92;;;10.70;92.00;;;;;;4931254;28;20039;-75
2022/10/20 08:29:39;;;;;;;7.93;3.70;;;10.80;91.50;;;;;;4917947;29;20044;-75
2022/10/20 08:32:05;;;;;;;7.68;3.75;;;10.80;91.70;;;;;;4924984;29;20039;-75
2022/10/20 08:34:31;;;;;;;5.63;3.40;;;10.90;91.20;;;;;;4937053;28;20027;-75
2022/10/20 08:36:57;;;;;;;8.15;3.80;;;11.00;91.70;;;;;;4923149;29;20070;-68
2022/10/20 08:39:23;;;;;;;7.82;3.53;;;11.10;91.40;;;;;;4924250;29;20050;-67
2022/10/20 08:41:50;;;;;;;7.40;3.40;;;11.30;91.20;;;;;;4923702;29;20039;-68
2022/10/20 08:44:22;;;;;;;6.38;3.67;;;11.50;90.90;;;;;;4924647;28;20051;-68
2022/10/20 08:46:48;;;;;;;5.70;3.10;;;11.80;88.90;;;;;;4915671;29;20068;-68
2022/10/20 08:49:22;;;;;;;4.18;2.92;;;12.10;88.30;;;;;;4923608;29;20055;-68
2022/10/20 08:51:48;;;;;;;8.75;3.65;;;12.90;86.90;;;;;;4913669;29;20036;-68
2022/10/20 08:54:15;;;;;;;8.25;3.65;;;13.40;82.80;;;;;;4916820;29;20659;-67
2022/10/20 08:56:43;;;;;;;5.85;3.65;;;13.50;82.40;;;;;;4919312;29;20209;-67
2022/10/20 08:59:34;;;;;;;4.15;2.67;;;13.70;80.50;;;;;;4916951;29;20043;-68
2022/10/20 09:02:08;;;;;;;4.97;3.20;;;13.80;80.60;;;;;;4922564;29;20036;-68
2022/10/20 09:04:40;;;;;;;5.95;3.17;;;13.70;81.80;;;;;;4920592;29;20027;-68
2022/10/20 09:07:22;;;;;;;6.55;3.67;;;13.60;80.70;;;;;;4923942;29;20042;-68
2022/10/20 09:09:48;;;;;;;8.93;3.65;;;13.40;81.60;;;;;;4914803;29;20035;-68
2022/10/20 09:12:14;;;;;;;4.72;2.80;;;13.50;82.20;;;;;;4925054;29;20058;-68
2022/10/20 09:14:40;;;;;;;6.20;3.25;;;13.80;80.90;;;;;;4929022;29;20079;-68
2022/10/20 09:17:16;;;;;;;7.30;3.22;;;14.30;81.00;;;;;;4928262;29;20044;-76
2022/10/20 09:19:55;;;;;;;5.13;2.45;;;14.70;76.60;;;;;;4922026;29;20035;-76
2022/10/20 09:22:21;;;;;;;4.65;2.72;;;14.70;75.70;;;;;;4925504;29;20123;-77
2022/10/20 09:24:49;;;;;;;3.78;2.92;;;14.90;75.40;;;;;;4915523;29;20058;-77
2022/10/20 09:27:30;;;;;;;3.72;2.33;;;15.00;75.50;;;;;;4923722;29;20027;-76
2022/10/20 09:29:55;;;;;;;3.20;2.00;;;15.30;75.50;;;;;;4927702;29;20042;-77
2022/10/20 09:32:33;;;;;;;4.60;2.60;;;15.30;73.50;;;;;;4922559;29;20032;-75
2022/10/20 09:35:27;;;;;;;4.30;2.13;;;15.10;75.20;;;;;;4913699;29;20032;-75
2022/10/20 09:38:14;;;;;;;5.22;2.30;;;14.90;73.90;;;;;;4919568;29;20039;-75
2022/10/20 09:40:59;;;;;;;3.90;2.45;;;14.80;76.00;;;;;;4926894;29;20039;-75
2022/10/20 09:43:26;;;;;;;4.03;2.60;;;14.70;74.30;;;;;;4926091;29;20497;-74
2022/10/20 09:46:02;;;;;;;6.28;1.92;;;14.60;75.60;;;;;;4926200;29;20058;-65
2022/10/20 09:48:33;;;;;;;4.55;2.00;;;14.60;76.20;;;;;;4926625;29;20027;-67
2022/10/20 09:50:59;;;;;;;2.97;1.90;;;14.70;74.00;;;;;;4919374;29;20391;-72
2022/10/20 09:53:33;;;;;;;3.50;2.00;;;14.70;73.20;;;;;;4919015;29;20050;-65
2022/10/20 09:55:58;;;;;;;6.40;2.10;;;14.80;74.30;;;;;;4919198;29;20485;-66
2022/10/20 09:58:31;;;;;;;4.38;2.00;;;14.80;74.90;;;;;;4919455;29;20040;-69
2022/10/20 10:01:11;;;;;;;5.03;2.63;;;15.00;74.40;;;;;;4920848;29;20036;-67
2022/10/20 10:03:40;;;;;;;3.20;2.00;;;15.20;71.20;;;;;;4926024;29;20028;-67
2022/10/20 10:06:25;;;;;;;3.17;2.22;;;15.70;70.80;;;;;;4915280;29;20062;-67
2022/10/20 10:08:50;;;;;;;2.90;2.17;;;16.20;68.80;;;;;;4921197;29;20485;-67
2022/10/20 10:11:19;;;;;;;5.15;2.28;;;16.50;68.50;;;;;;4916733;29;20143;-67
2022/10/20 10:13:47;;;;;;;4.45;1.88;;;16.90;67.00;;;;;;4913747;29;20032;-67
2022/10/20 10:16:17;;;;;;;5.50;2.42;;;17.60;65.80;;;;;;4921554;29;20056;-67
2022/10/20 10:18:46;;;;;;;4.22;2.30;;;18.20;60.40;;;;;;4924308;29;20534;-66
2022/10/20 10:21:14;;;;;;;3.65;2.00;;;18.70;61.10;;;;;;4924992;29;20048;-65
2022/10/20 10:23:53;;;;;;;5.07;2.33;;;19.50;58.30;;;;;;4919776;29;20020;-66
2022/10/20 10:26:42;;;;;;;4.80;1.95;;;19.90;55.40;;;;;;4914040;29;20026;-69
2022/10/20 10:29:28;;;;;;;2.92;2.00;;;19.60;56.40;;;;;;4919623;29;20035;-69
2022/10/20 10:32:18;;;;;;;5.32;2.15;;;19.50;57.10;;;;;;4923690;29;20123;-68
2022/10/20 10:34:50;;;;;;;4.63;2.17;;;18.90;57.40;;;;;;4922353;29;20042;-68
2022/10/20 10:37:16;;;;;;;4.57;1.98;;;19.10;59.00;;;;;;4919818;29;20040;-68
2022/10/20 10:39:43;;;;;;;5.30;2.60;;;20.20;55.80;;;;;;4928034;28;20050;-67
2022/10/20 10:42:30;;;;;;;2.55;1.90;;;20.90;53.20;;;;;;4910691;29;20071;-68
2022/10/20 10:45:06;;;;;;;4.03;2.10;;;21.40;51.30;;;;;;4917019;29;20036;-68
2022/10/20 10:48:00;;;;;;;3.35;1.92;;;21.10;51.30;;;;;;4919693;29;20119;-69
2022/10/20 10:50:33;;;;;;;3.72;1.90;;;21.00;51.40;;;;;;4913678;29;20043;-68
2022/10/20 10:53:05;;;;;;;3.40;1.80;;;21.30;50.50;;;;;;4917726;29;20107;-68
2022/10/20 10:56:08;;;;;;;3.17;2.08;;;20.90;50.60;;;;;;4923358;29;20027;-68
2022/10/20 10:59:04;;;;;;;2.33;1.75;;;20.40;53.30;;;;;;4904960;29;20040;-68
2022/10/20 11:01:58;;;;;;;4.30;1.80;;;19.20;55.50;;;;;;4916088;29;20036;-68
2022/10/20 11:04:55;;;;;;;4.65;2.03;;;17.60;59.70;;;;;;4914015;29;20110;-68
2022/10/20 11:07:35;;;;;;;2.72;1.73;;;16.90;63.70;;;;;;4923705;29;20103;-68
2022/10/20 11:10:09;;;;;;;2.53;1.73;;;16.40;65.00;;;;;;4921027;28;20044;-67
2022/10/20 11:13:09;;;;;;;4.78;2.03;;;16.00;66.40;;;;;;4917039;29;20528;-67
2022/10/20 11:15:35;;;;;;;2.45;1.77;;;15.60;66.40;;;;;;4929508;28;20023;-68
2022/10/20 11:18:06;;;;;;;2.78;1.67;;;15.50;68.20;;;;;;4921303;29;20489;-68
2022/10/20 11:20:47;;;;;;;7.07;1.90;;;15.70;68.90;;;;;;4924298;29;20028;-67
2022/10/20 11:23:34;;;;;;;2.53;1.73;;;15.70;67.60;;;;;;4915853;29;20082;-73
2022/10/20 11:26:09;;;;;;;4.10;1.85;;;15.60;68.30;;;;;;4915289;29;20495;-73
2022/10/20 11:28:45;;;;;;;2.25;1.70;;;15.60;67.50;;;;;;4917271;29;20559;-76
2022/10/20 11:31:50;;;;;;;4.30;1.40;;;15.50;67.90;;;;;;4922044;29;20039;-73
2022/10/20 11:34:26;;;;;;;3.28;1.80;;;15.50;68.00;;;;;;4915879;29;20039;-73
2022/10/20 11:37:14;;;;;;;6.13;3.67;;;15.60;68.80;;;;;;4919256;29;20679;-73
2022/10/20 11:39:50;;;;;;;3.90;2.05;;;15.50;67.50;;;;;;4917065;29;20044;-73
2022/10/20 11:42:57;;;;;;;4.45;1.70;;;15.60;68.40;;;;;;4912160;29;20019;-73
2022/10/20 11:45:23;;;;;;;3.40;1.77;;;15.70;69.10;;;;;;4921184;29;20079;-73
2022/10/20 11:48:11;;;;;;;3.65;2.00;;;15.70;67.90;;;;;;4910815;29;20028;-77
2022/10/20 11:50:38;;;;;;;2.40;1.33;;;15.70;67.90;;;;;;4918542;29;20036;-73
2022/10/20 11:53:34;;;;;;;2.72;1.83;;;15.80;69.30;;;;;;4924397;29;20036;-73
2022/10/20 11:56:08;;;;;;;2.20;1.63;;;15.80;67.60;;;;;;4914727;29;20067;-72
2022/10/20 11:58:52;;;;;;;4.88;1.90;;;15.70;68.20;;;;;;4917221;29;20212;-73
2022/10/20 12:01:25;;;;;;;5.38;1.60;;;15.60;68.30;;;;;;4920414;29;20031;-72
2022/10/20 12:04:15;;;;;;;4.22;1.80;;;15.70;68.80;;;;;;4914418;29;20044;-73
2022/10/20 12:07:10;;;;;;;4.97;1.90;;;15.60;68.30;;;;;;4914810;29;20521;-72
2022/10/20 12:10:13;;;;;;;2.50;1.90;;;15.60;68.80;;;;;;4919282;29;20035;-72
2022/10/20 12:13:11;;;;;;;4.05;1.58;;;15.70;69.20;;;;;;4920444;29;20035;-73
2022/10/20 12:15:48;;;;;;;4.65;1.50;;;15.80;69.60;;;;;;4922584;29;20043;-68
2022/10/20 12:18:32;;;;;;;2.85;1.40;;;15.90;69.30;;;;;;4929845;29;20035;-72
2022/10/20 12:21:00;;;;;;;6.00;1.75;;;16.00;69.00;;;;;;4919385;29;20091;-68
2022/10/20 12:23:44;;;;;;;2.05;1.70;;;15.90;69.90;;;;;;4916573;29;20043;-68
2022/10/20 12:26:37;;;;;;;5.03;1.73;;;16.00;68.00;;;;;;4923768;29;20110;-68
2022/10/20 12:29:31;;;;;;;4.85;1.38;;;16.00;69.50;;;;;;4926867;28;20411;-68
2022/10/20 12:32:36;;;;;;;6.25;1.80;;;16.10;67.50;;;;;;4921717;29;20040;-68
2022/10/20 12:35:21;;;;;;;3.85;1.88;;;16.20;67.80;;;;;;4921705;29;20135;-68
2022/10/20 12:37:56;;;;;;;3.50;1.63;;;16.10;67.70;;;;;;4917556;29;20039;-68
2022/10/20 12:41:07;;;;;;;5.75;2.17;;;16.10;68.00;;;;;;4918068;29;20179;-68
2022/10/20 12:43:44;;;;;;;2.53;1.50;;;16.20;69.00;;;;;;4855588;29;20193;-68
2022/10/20 12:46:14;;;;;;;2.63;1.88;;;16.30;67.70;;;;;;4870207;29;20051;-69
2022/10/20 12:48:44;;;;;;;1.98;1.40;;;16.30;67.90;;;;;;4897171;29;20082;-72
2022/10/20 12:51:46;;;;;;;7.18;1.75;;;16.30;68.00;;;;;;4929087;28;20506;-73
2022/10/20 12:54:15;;;;;;;1.77;1.40;;;16.40;68.10;;;;;;4930644;28;20058;-73
2022/10/20 12:56:41;;;;;;;2.88;1.75;;;16.50;67.00;;;;;;4917020;29;20039;-72
2022/10/20 12:59:28;;;;;;;3.90;1.40;;;16.40;66.60;;;;;;4920748;29;20054;-72
2022/10/20 13:02:09;;;;;;;5.15;1.70;;;16.30;67.40;;;;;;4925239;29;20552;-74
2022/10/20 13:05:22;;;;;;;3.22;1.83;;;16.20;68.20;;;;;;4921993;29;20106;-74
2022/10/20 13:07:48;;;;;;;5.85;1.73;;;16.30;67.40;;;;;;4917194;29;20110;-73
2022/10/20 13:10:37;;;;;;;4.93;1.85;;;16.20;67.20;;;;;;4921636;29;20736;-73
2022/10/20 13:13:03;;;;;;;2.70;1.67;;;16.20;66.40;;;;;;4916119;29;20078;-70
2022/10/20 13:15:38;;;;;;;3.17;1.52;;;16.10;67.80;;;;;;4914290;29;20107;-71
2022/10/20 13:18:19;;;;;;;3.15;2.00;;;16.10;67.30;;;;;;4919883;29;20035;-71